sensor_id;sensor_type;location;lat;lon;timestamp;P1;durP1;ratioP1;P2;durP2;ratioP2
21843;SDS011;11084;52.482;9.108;2022-12-18T00:01:16;5.23;;;2.33;;
21843;SDS011;11084;52.482;9.108;2022-12-18T00:03:46;4.43;;;2.87;;
21843;SDS011;11084;52.482;9.108;2022-12-18T00:06:13;3.13;;;2.27;;
21843;SDS011;11084;52.482;9.108;2022-12-18T00:08:43;3.30;;;2.53;;
21843;SDS011;11084;52.482;9.108;2022-12-18T00:11:12;3.93;;;2.40;;
21843;SDS011;11084;52.482;9.108;2022-12-18T00:13:43;9.67;;;3.63;;
21843;SDS011;11084;52.482;9.108;2022-12-18T00:16:12;2.30;;;2.07;;
21843;SDS011;11084;52.482;9.108;2022-12-18T00:18:41;4.97;;;3.07;;
21843;SDS011;11084;52.482;9.108;2022-12-18T00:21:09;13.00;;;3.73;;
21843;SDS011;11084;52.482;9.108;2022-12-18T00:23:37;7.00;;;2.90;;
21843;SDS011;11084;52.482;9.108;2022-12-18T00:26:06;5.77;;;3.43;;
21843;SDS011;11084;52.482;9.108;2022-12-18T00:28:37;6.00;;;1.93;;
21843;SDS011;11084;52.482;9.108;2022-12-18T00:31:04;10.20;;;3.77;;
21843;SDS011;11084;52.482;9.108;2022-12-18T00:33:33;4.17;;;2.23;;
21843;SDS011;11084;52.482;9.108;2022-12-18T00:36:03;3.53;;;2.23;;
21843;SDS011;11084;52.482;9.108;2022-12-18T00:38:33;2.03;;;1.23;;
21843;SDS011;11084;52.482;9.108;2022-12-18T00:40:59;2.03;;;1.93;;
21843;SDS011;11084;52.482;9.108;2022-12-18T00:43:26;6.67;;;2.17;;
21843;SDS011;11084;52.482;9.108;2022-12-18T00:45:52;2.13;;;1.90;;
21843;SDS011;11084;52.482;9.108;2022-12-18T00:48:19;3.10;;;0.97;;
21843;SDS011;11084;52.482;9.108;2022-12-18T00:50:49;3.13;;;1.40;;
21843;SDS011;11084;52.482;9.108;2022-12-18T00:53:16;2.53;;;1.97;;
21843;SDS011;11084;52.482;9.108;2022-12-18T00:55:43;3.23;;;1.50;;
21843;SDS011;11084;52.482;9.108;2022-12-18T00:58:10;4.67;;;3.37;;
21843;SDS011;11084;52.482;9.108;2022-12-18T01:00:37;2.77;;;2.20;;
21843;SDS011;11084;52.482;9.108;2022-12-18T01:03:03;3.60;;;2.03;;
21843;SDS011;11084;52.482;9.108;2022-12-18T01:05:30;4.30;;;2.00;;
21843;SDS011;11084;52.482;9.108;2022-12-18T01:07:57;2.33;;;1.67;;
21843;SDS011;11084;52.482;9.108;2022-12-18T01:10:24;2.50;;;2.30;;
21843;SDS011;11084;52.482;9.108;2022-12-18T01:12:50;2.17;;;1.97;;
21843;SDS011;11084;52.482;9.108;2022-12-18T01:15:17;4.70;;;2.93;;
21843;SDS011;11084;52.482;9.108;2022-12-18T01:17:43;2.77;;;2.53;;
21843;SDS011;11084;52.482;9.108;2022-12-18T01:20:10;6.03;;;3.20;;
21843;SDS011;11084;52.482;9.108;2022-12-18T01:22:37;1.63;;;1.53;;
21843;SDS011;11084;52.482;9.108;2022-12-18T01:25:06;1.80;;;1.60;;
21843;SDS011;11084;52.482;9.108;2022-12-18T01:27:34;3.53;;;1.47;;
21843;SDS011;11084;52.482;9.108;2022-12-18T01:30:02;2.33;;;2.13;;
21843;SDS011;11084;52.482;9.108;2022-12-18T01:32:30;2.03;;;1.93;;
21843;SDS011;11084;52.482;9.108;2022-12-18T01:34:56;1.80;;;1.70;;
21843;SDS011;11084;52.482;9.108;2022-12-18T01:37:26;1.27;;;1.17;;
21843;SDS011;11084;52.482;9.108;2022-12-18T01:39:52;2.27;;;1.60;;
21843;SDS011;11084;52.482;9.108;2022-12-18T01:42:20;3.83;;;1.93;;
21843;SDS011;11084;52.482;9.108;2022-12-18T01:47:45;1.53;;;1.43;;
21843;SDS011;11084;52.482;9.108;2022-12-18T01:52:42;5.10;;;1.50;;
21843;SDS011;11084;52.482;9.108;2022-12-18T01:55:14;3.50;;;2.00;;
21843;SDS011;11084;52.482;9.108;2022-12-18T01:57:45;1.60;;;1.50;;
21843;SDS011;11084;52.482;9.108;2022-12-18T02:00:16;3.47;;;2.07;;
21843;SDS011;11084;52.482;9.108;2022-12-18T02:02:45;5.67;;;2.20;;
21843;SDS011;11084;52.482;9.108;2022-12-18T02:05:13;6.20;;;1.67;;
21843;SDS011;11084;52.482;9.108;2022-12-18T02:14:48;1.47;;;1.37;;
21843;SDS011;11084;52.482;9.108;2022-12-18T02:16:53;1.53;;;1.43;;
21843;SDS011;11084;52.482;9.108;2022-12-18T02:19:47;4.40;;;1.90;;
21843;SDS011;11084;52.482;9.108;2022-12-18T02:25:26;3.70;;;2.93;;
21843;SDS011;11084;52.482;9.108;2022-12-18T02:28:22;2.23;;;1.13;;
21843;SDS011;11084;52.482;9.108;2022-12-18T02:30:56;2.77;;;2.57;;
21843;SDS011;11084;52.482;9.108;2022-12-18T02:33:28;2.53;;;1.50;;
21843;SDS011;11084;52.482;9.108;2022-12-18T02:35:56;2.77;;;2.37;;
21843;SDS011;11084;52.482;9.108;2022-12-18T02:38:25;3.83;;;2.03;;
21843;SDS011;11084;52.482;9.108;2022-12-18T02:40:54;2.13;;;1.47;;
21843;SDS011;11084;52.482;9.108;2022-12-18T02:43:21;2.97;;;2.03;;
21843;SDS011;11084;52.482;9.108;2022-12-18T02:45:48;1.73;;;1.60;;
21843;SDS011;11084;52.482;9.108;2022-12-18T02:48:30;1.00;;;1.00;;
21843;SDS011;11084;52.482;9.108;2022-12-18T02:51:03;3.33;;;3.03;;
21843;SDS011;11084;52.482;9.108;2022-12-18T02:53:51;1.60;;;1.30;;
21843;SDS011;11084;52.482;9.108;2022-12-18T02:57:04;0.93;;;0.90;;
21843;SDS011;11084;52.482;9.108;2022-12-18T02:59:47;2.40;;;2.13;;
21843;SDS011;11084;52.482;9.108;2022-12-18T03:02:57;2.57;;;2.07;;
21843;SDS011;11084;52.482;9.108;2022-12-18T03:05:33;1.53;;;1.17;;
21843;SDS011;11084;52.482;9.108;2022-12-18T03:08:09;2.20;;;1.43;;
21843;SDS011;11084;52.482;9.108;2022-12-18T03:10:45;10.13;;;2.37;;
21843;SDS011;11084;52.482;9.108;2022-12-18T03:13:36;4.23;;;1.53;;
21843;SDS011;11084;52.482;9.108;2022-12-18T03:16:14;1.73;;;1.63;;
21843;SDS011;11084;52.482;9.108;2022-12-18T03:18:49;1.80;;;1.57;;
21843;SDS011;11084;52.482;9.108;2022-12-18T03:21:21;7.67;;;1.83;;
21843;SDS011;11084;52.482;9.108;2022-12-18T03:23:58;5.73;;;2.10;;
21843;SDS011;11084;52.482;9.108;2022-12-18T03:26:26;5.60;;;1.83;;
21843;SDS011;11084;52.482;9.108;2022-12-18T03:28:59;3.83;;;1.63;;
21843;SDS011;11084;52.482;9.108;2022-12-18T03:31:33;5.83;;;2.60;;
21843;SDS011;11084;52.482;9.108;2022-12-18T03:33:59;2.93;;;1.90;;
21843;SDS011;11084;52.482;9.108;2022-12-18T03:36:38;2.47;;;1.37;;
21843;SDS011;11084;52.482;9.108;2022-12-18T03:39:04;2.47;;;2.20;;
21843;SDS011;11084;52.482;9.108;2022-12-18T03:41:43;2.33;;;1.40;;
21843;SDS011;11084;52.482;9.108;2022-12-18T03:47:25;12.20;;;2.10;;
21843;SDS011;11084;52.482;9.108;2022-12-18T03:50:22;2.03;;;1.27;;
21843;SDS011;11084;52.482;9.108;2022-12-18T03:55:50;1.83;;;1.50;;
21843;SDS011;11084;52.482;9.108;2022-12-18T03:58:19;3.30;;;1.83;;
21843;SDS011;11084;52.482;9.108;2022-12-18T04:01:00;1.43;;;1.40;;
21843;SDS011;11084;52.482;9.108;2022-12-18T04:03:30;4.33;;;2.43;;
21843;SDS011;11084;52.482;9.108;2022-12-18T04:05:57;12.57;;;2.43;;
21843;SDS011;11084;52.482;9.108;2022-12-18T04:08:27;3.33;;;2.13;;
21843;SDS011;11084;52.482;9.108;2022-12-18T04:11:03;3.70;;;1.97;;
21843;SDS011;11084;52.482;9.108;2022-12-18T04:13:36;2.37;;;1.43;;
21843;SDS011;11084;52.482;9.108;2022-12-18T04:16:14;1.37;;;1.27;;
21843;SDS011;11084;52.482;9.108;2022-12-18T04:18:42;3.13;;;2.83;;
21843;SDS011;11084;52.482;9.108;2022-12-18T04:21:09;1.53;;;1.43;;
21843;SDS011;11084;52.482;9.108;2022-12-18T04:23:36;1.50;;;1.40;;
21843;SDS011;11084;52.482;9.108;2022-12-18T04:26:03;1.30;;;1.20;;
21843;SDS011;11084;52.482;9.108;2022-12-18T04:28:44;1.03;;;1.03;;
21843;SDS011;11084;52.482;9.108;2022-12-18T04:31:11;1.80;;;1.57;;
21843;SDS011;11084;52.482;9.108;2022-12-18T04:33:38;17.57;;;2.20;;
21843;SDS011;11084;52.482;9.108;2022-12-18T04:36:05;2.90;;;1.80;;
21843;SDS011;11084;52.482;9.108;2022-12-18T04:38:32;3.10;;;1.10;;
21843;SDS011;11084;52.482;9.108;2022-12-18T04:41:04;3.40;;;1.63;;
21843;SDS011;11084;52.482;9.108;2022-12-18T04:43:30;1.70;;;1.60;;
21843;SDS011;11084;52.482;9.108;2022-12-18T04:46:04;3.03;;;2.30;;
21843;SDS011;11084;52.482;9.108;2022-12-18T04:48:32;1.47;;;1.00;;
21843;SDS011;11084;52.482;9.108;2022-12-18T04:51:01;1.37;;;1.20;;
21843;SDS011;11084;52.482;9.108;2022-12-18T04:53:28;11.73;;;2.03;;
21843;SDS011;11084;52.482;9.108;2022-12-18T04:56:08;1.87;;;1.27;;
21843;SDS011;11084;52.482;9.108;2022-12-18T04:58:39;1.20;;;0.97;;
21843;SDS011;11084;52.482;9.108;2022-12-18T05:01:07;6.93;;;2.93;;
21843;SDS011;11084;52.482;9.108;2022-12-18T05:03:34;2.67;;;2.40;;
21843;SDS011;11084;52.482;9.108;2022-12-18T05:06:01;1.20;;;1.10;;
21843;SDS011;11084;52.482;9.108;2022-12-18T05:08:28;2.17;;;1.57;;
21843;SDS011;11084;52.482;9.108;2022-12-18T05:11:02;11.23;;;2.87;;
21843;SDS011;11084;52.482;9.108;2022-12-18T05:13:31;2.93;;;2.07;;
21843;SDS011;11084;52.482;9.108;2022-12-18T05:15:58;3.17;;;1.40;;
21843;SDS011;11084;52.482;9.108;2022-12-18T05:18:25;1.73;;;1.17;;
21843;SDS011;11084;52.482;9.108;2022-12-18T05:20:52;2.00;;;1.70;;
21843;SDS011;11084;52.482;9.108;2022-12-18T05:23:19;3.10;;;2.00;;
21843;SDS011;11084;52.482;9.108;2022-12-18T05:25:50;1.30;;;1.20;;
21843;SDS011;11084;52.482;9.108;2022-12-18T05:28:21;1.83;;;1.47;;
21843;SDS011;11084;52.482;9.108;2022-12-18T05:30:51;2.60;;;2.07;;
21843;SDS011;11084;52.482;9.108;2022-12-18T05:33:20;1.80;;;1.53;;
21843;SDS011;11084;52.482;9.108;2022-12-18T05:35:55;2.73;;;1.60;;
21843;SDS011;11084;52.482;9.108;2022-12-18T05:38:27;6.13;;;2.97;;
21843;SDS011;11084;52.482;9.108;2022-12-18T05:40:56;3.53;;;1.37;;
21843;SDS011;11084;52.482;9.108;2022-12-18T05:43:23;1.10;;;1.10;;
21843;SDS011;11084;52.482;9.108;2022-12-18T05:45:51;3.97;;;2.17;;
21843;SDS011;11084;52.482;9.108;2022-12-18T05:48:18;3.87;;;2.10;;
21843;SDS011;11084;52.482;9.108;2022-12-18T05:50:45;2.43;;;1.77;;
21843;SDS011;11084;52.482;9.108;2022-12-18T05:53:13;3.70;;;2.10;;
21843;SDS011;11084;52.482;9.108;2022-12-18T05:55:43;1.77;;;1.67;;
21843;SDS011;11084;52.482;9.108;2022-12-18T05:58:10;2.70;;;2.37;;
21843;SDS011;11084;52.482;9.108;2022-12-18T06:00:38;3.47;;;1.90;;
21843;SDS011;11084;52.482;9.108;2022-12-18T06:03:09;1.53;;;1.30;;
21843;SDS011;11084;52.482;9.108;2022-12-18T06:05:37;1.53;;;1.43;;
21843;SDS011;11084;52.482;9.108;2022-12-18T06:08:08;5.50;;;3.03;;
21843;SDS011;11084;52.482;9.108;2022-12-18T06:10:36;2.30;;;1.50;;
21843;SDS011;11084;52.482;9.108;2022-12-18T06:13:03;2.73;;;2.07;;
21843;SDS011;11084;52.482;9.108;2022-12-18T06:15:30;1.63;;;1.27;;
21843;SDS011;11084;52.482;9.108;2022-12-18T06:17:56;6.60;;;2.93;;
21843;SDS011;11084;52.482;9.108;2022-12-18T06:20:23;5.47;;;1.57;;
21843;SDS011;11084;52.482;9.108;2022-12-18T06:22:49;1.50;;;1.27;;
21843;SDS011;11084;52.482;9.108;2022-12-18T06:25:15;3.33;;;2.03;;
21843;SDS011;11084;52.482;9.108;2022-12-18T06:27:41;2.77;;;2.37;;
21843;SDS011;11084;52.482;9.108;2022-12-18T06:30:07;2.27;;;1.80;;
21843;SDS011;11084;52.482;9.108;2022-12-18T06:32:34;1.70;;;1.50;;
21843;SDS011;11084;52.482;9.108;2022-12-18T06:35:00;1.17;;;1.17;;
21843;SDS011;11084;52.482;9.108;2022-12-18T06:37:26;2.40;;;2.03;;
21843;SDS011;11084;52.482;9.108;2022-12-18T06:39:53;2.23;;;1.67;;
21843;SDS011;11084;52.482;9.108;2022-12-18T06:42:19;4.03;;;2.70;;
21843;SDS011;11084;52.482;9.108;2022-12-18T06:44:45;5.73;;;1.60;;
21843;SDS011;11084;52.482;9.108;2022-12-18T06:47:11;3.67;;;2.63;;
21843;SDS011;11084;52.482;9.108;2022-12-18T06:49:36;5.43;;;2.63;;
21843;SDS011;11084;52.482;9.108;2022-12-18T06:52:02;3.63;;;1.00;;
21843;SDS011;11084;52.482;9.108;2022-12-18T06:54:28;4.40;;;1.47;;
21843;SDS011;11084;52.482;9.108;2022-12-18T06:56:54;4.83;;;1.97;;
21843;SDS011;11084;52.482;9.108;2022-12-18T06:59:21;1.53;;;1.47;;
21843;SDS011;11084;52.482;9.108;2022-12-18T07:01:47;1.00;;;1.00;;
21843;SDS011;11084;52.482;9.108;2022-12-18T07:04:13;1.07;;;1.00;;
21843;SDS011;11084;52.482;9.108;2022-12-18T07:06:39;4.13;;;1.57;;
21843;SDS011;11084;52.482;9.108;2022-12-18T07:09:07;3.03;;;2.13;;
21843;SDS011;11084;52.482;9.108;2022-12-18T07:11:36;1.17;;;1.17;;
21843;SDS011;11084;52.482;9.108;2022-12-18T07:14:02;1.80;;;1.40;;
21843;SDS011;11084;52.482;9.108;2022-12-18T07:16:30;2.33;;;1.93;;
21843;SDS011;11084;52.482;9.108;2022-12-18T07:18:56;1.20;;;0.93;;
21843;SDS011;11084;52.482;9.108;2022-12-18T07:21:22;1.90;;;1.67;;
21843;SDS011;11084;52.482;9.108;2022-12-18T07:23:50;1.30;;;1.00;;
21843;SDS011;11084;52.482;9.108;2022-12-18T07:26:17;1.93;;;1.50;;
21843;SDS011;11084;52.482;9.108;2022-12-18T07:28:45;3.03;;;1.10;;
21843;SDS011;11084;52.482;9.108;2022-12-18T07:31:13;3.33;;;1.87;;
21843;SDS011;11084;52.482;9.108;2022-12-18T07:33:42;2.10;;;1.90;;
21843;SDS011;11084;52.482;9.108;2022-12-18T07:36:09;1.67;;;1.57;;
21843;SDS011;11084;52.482;9.108;2022-12-18T07:38:36;3.63;;;1.73;;
21843;SDS011;11084;52.482;9.108;2022-12-18T07:43:31;1.53;;;1.47;;
21843;SDS011;11084;52.482;9.108;2022-12-18T07:45:58;4.10;;;2.13;;
21843;SDS011;11084;52.482;9.108;2022-12-18T07:48:24;1.40;;;1.30;;
21843;SDS011;11084;52.482;9.108;2022-12-18T07:50:50;1.90;;;1.50;;
21843;SDS011;11084;52.482;9.108;2022-12-18T07:53:16;8.00;;;3.53;;
21843;SDS011;11084;52.482;9.108;2022-12-18T07:55:42;8.30;;;4.03;;
21843;SDS011;11084;52.482;9.108;2022-12-18T07:58:08;13.37;;;4.50;;
21843;SDS011;11084;52.482;9.108;2022-12-18T08:00:35;9.17;;;4.70;;
21843;SDS011;11084;52.482;9.108;2022-12-18T08:03:01;11.90;;;5.70;;
21843;SDS011;11084;52.482;9.108;2022-12-18T08:05:27;8.33;;;4.50;;
21843;SDS011;11084;52.482;9.108;2022-12-18T08:07:53;8.53;;;4.07;;
21843;SDS011;11084;52.482;9.108;2022-12-18T08:10:20;9.77;;;5.00;;
21843;SDS011;11084;52.482;9.108;2022-12-18T08:12:50;9.53;;;4.30;;
21843;SDS011;11084;52.482;9.108;2022-12-18T08:15:16;9.33;;;4.60;;
21843;SDS011;11084;52.482;9.108;2022-12-18T08:17:49;10.37;;;5.30;;
21843;SDS011;11084;52.482;9.108;2022-12-18T08:20:15;8.27;;;4.77;;
21843;SDS011;11084;52.482;9.108;2022-12-18T08:22:42;11.57;;;4.63;;
21843;SDS011;11084;52.482;9.108;2022-12-18T08:25:08;8.63;;;4.60;;
21843;SDS011;11084;52.482;9.108;2022-12-18T08:27:34;11.80;;;5.50;;
21843;SDS011;11084;52.482;9.108;2022-12-18T08:30:00;9.30;;;5.10;;
21843;SDS011;11084;52.482;9.108;2022-12-18T08:32:26;9.60;;;5.30;;
21843;SDS011;11084;52.482;9.108;2022-12-18T08:34:53;9.80;;;4.70;;
21843;SDS011;11084;52.482;9.108;2022-12-18T08:37:19;13.30;;;4.50;;
21843;SDS011;11084;52.482;9.108;2022-12-18T08:39:45;10.87;;;5.13;;
21843;SDS011;11084;52.482;9.108;2022-12-18T08:42:11;8.23;;;4.43;;
21843;SDS011;11084;52.482;9.108;2022-12-18T08:44:55;9.97;;;4.17;;
21843;SDS011;11084;52.482;9.108;2022-12-18T08:47:21;9.97;;;4.87;;
21843;SDS011;11084;52.482;9.108;2022-12-18T08:49:47;8.77;;;4.17;;
21843;SDS011;11084;52.482;9.108;2022-12-18T08:52:13;5.67;;;3.50;;
21843;SDS011;11084;52.482;9.108;2022-12-18T08:54:39;10.37;;;4.07;;
21843;SDS011;11084;52.482;9.108;2022-12-18T08:57:06;5.80;;;3.50;;
21843;SDS011;11084;52.482;9.108;2022-12-18T08:59:32;7.30;;;3.70;;
21843;SDS011;11084;52.482;9.108;2022-12-18T09:01:59;8.97;;;4.50;;
21843;SDS011;11084;52.482;9.108;2022-12-18T09:04:25;7.30;;;3.13;;
21843;SDS011;11084;52.482;9.108;2022-12-18T09:06:52;6.20;;;3.10;;
21843;SDS011;11084;52.482;9.108;2022-12-18T09:09:18;6.67;;;2.83;;
21843;SDS011;11084;52.482;9.108;2022-12-18T09:11:44;6.90;;;3.43;;
21843;SDS011;11084;52.482;9.108;2022-12-18T09:14:10;5.90;;;3.83;;
21843;SDS011;11084;52.482;9.108;2022-12-18T09:16:37;7.53;;;3.03;;
21843;SDS011;11084;52.482;9.108;2022-12-18T09:19:04;9.10;;;3.73;;
21843;SDS011;11084;52.482;9.108;2022-12-18T09:21:33;6.10;;;2.97;;
21843;SDS011;11084;52.482;9.108;2022-12-18T09:24:05;5.03;;;2.33;;
21843;SDS011;11084;52.482;9.108;2022-12-18T09:26:33;6.13;;;3.63;;
21843;SDS011;11084;52.482;9.108;2022-12-18T09:29:00;5.40;;;2.60;;
21843;SDS011;11084;52.482;9.108;2022-12-18T09:31:28;4.90;;;2.73;;
21843;SDS011;11084;52.482;9.108;2022-12-18T09:33:55;6.57;;;2.63;;
21843;SDS011;11084;52.482;9.108;2022-12-18T09:36:21;4.07;;;3.00;;
21843;SDS011;11084;52.482;9.108;2022-12-18T09:38:47;4.53;;;2.47;;
21843;SDS011;11084;52.482;9.108;2022-12-18T09:44:21;5.17;;;2.97;;
21843;SDS011;11084;52.482;9.108;2022-12-18T09:47:02;4.77;;;2.57;;
21843;SDS011;11084;52.482;9.108;2022-12-18T09:49:45;7.40;;;2.53;;
21843;SDS011;11084;52.482;9.108;2022-12-18T09:52:34;8.30;;;3.03;;
21843;SDS011;11084;52.482;9.108;2022-12-18T09:57:45;14.67;;;3.97;;
21843;SDS011;11084;52.482;9.108;2022-12-18T10:00:21;3.40;;;2.80;;
21843;SDS011;11084;52.482;9.108;2022-12-18T10:02:52;5.43;;;3.43;;
21843;SDS011;11084;52.482;9.108;2022-12-18T10:08:39;5.87;;;3.50;;
21843;SDS011;11084;52.482;9.108;2022-12-18T10:13:54;2.80;;;2.30;;
21843;SDS011;11084;52.482;9.108;2022-12-18T10:19:40;4.00;;;3.03;;
21843;SDS011;11084;52.482;9.108;2022-12-18T10:25:02;7.47;;;3.80;;
21843;SDS011;11084;52.482;9.108;2022-12-18T10:27:55;7.50;;;3.33;;
21843;SDS011;11084;52.482;9.108;2022-12-18T10:30:40;11.60;;;2.97;;
21843;SDS011;11084;52.482;9.108;2022-12-18T10:33:11;5.57;;;3.60;;
21843;SDS011;11084;52.482;9.108;2022-12-18T10:35:43;6.60;;;3.83;;
21843;SDS011;11084;52.482;9.108;2022-12-18T10:41:03;8.00;;;3.43;;
21843;SDS011;11084;52.482;9.108;2022-12-18T10:43:43;6.03;;;3.00;;
21843;SDS011;11084;52.482;9.108;2022-12-18T10:51:19;5.37;;;3.30;;
21843;SDS011;11084;52.482;9.108;2022-12-18T10:56:30;8.87;;;3.40;;
21843;SDS011;11084;52.482;9.108;2022-12-18T10:59:03;5.60;;;2.97;;
21843;SDS011;11084;52.482;9.108;2022-12-18T11:01:46;5.33;;;3.60;;
21843;SDS011;11084;52.482;9.108;2022-12-18T11:04:25;7.53;;;3.43;;
21843;SDS011;11084;52.482;9.108;2022-12-18T11:06:58;5.77;;;2.80;;
21843;SDS011;11084;52.482;9.108;2022-12-18T11:09:28;4.73;;;2.50;;
21843;SDS011;11084;52.482;9.108;2022-12-18T11:17:50;5.13;;;2.50;;
21843;SDS011;11084;52.482;9.108;2022-12-18T11:20:21;4.70;;;3.33;;
21843;SDS011;11084;52.482;9.108;2022-12-18T11:22:59;5.60;;;2.70;;
21843;SDS011;11084;52.482;9.108;2022-12-18T11:25:31;7.43;;;2.60;;
21843;SDS011;11084;52.482;9.108;2022-12-18T11:36:36;5.80;;;3.13;;
21843;SDS011;11084;52.482;9.108;2022-12-18T11:39:12;8.70;;;3.33;;
21843;SDS011;11084;52.482;9.108;2022-12-18T11:42:08;6.00;;;2.83;;
21843;SDS011;11084;52.482;9.108;2022-12-18T11:45:33;12.03;;;3.00;;
21843;SDS011;11084;52.482;9.108;2022-12-18T11:48:12;5.77;;;2.97;;
21843;SDS011;11084;52.482;9.108;2022-12-18T11:50:57;4.27;;;2.87;;
21843;SDS011;11084;52.482;9.108;2022-12-18T11:53:26;4.97;;;2.53;;
21843;SDS011;11084;52.482;9.108;2022-12-18T11:59:09;7.20;;;2.80;;
21843;SDS011;11084;52.482;9.108;2022-12-18T12:02:43;4.90;;;2.83;;
21843;SDS011;11084;52.482;9.108;2022-12-18T12:08:35;7.17;;;2.53;;
21843;SDS011;11084;52.482;9.108;2022-12-18T12:11:35;9.03;;;2.90;;
21843;SDS011;11084;52.482;9.108;2022-12-18T12:21:02;7.77;;;2.93;;
21843;SDS011;11084;52.482;9.108;2022-12-18T12:26:32;3.93;;;2.77;;
21843;SDS011;11084;52.482;9.108;2022-12-18T12:40:30;4.70;;;2.97;;
21843;SDS011;11084;52.482;9.108;2022-12-18T12:43:10;11.43;;;3.13;;
21843;SDS011;11084;52.482;9.108;2022-12-18T12:45:54;6.53;;;2.40;;
21843;SDS011;11084;52.482;9.108;2022-12-18T12:48:45;5.57;;;2.77;;
21843;SDS011;11084;52.482;9.108;2022-12-18T12:51:17;5.10;;;3.00;;
21843;SDS011;11084;52.482;9.108;2022-12-18T12:53:50;4.77;;;2.37;;
21843;SDS011;11084;52.482;9.108;2022-12-18T12:56:19;8.33;;;3.33;;
21843;SDS011;11084;52.482;9.108;2022-12-18T12:58:52;4.63;;;3.07;;
21843;SDS011;11084;52.482;9.108;2022-12-18T13:07:32;5.37;;;2.90;;
21843;SDS011;11084;52.482;9.108;2022-12-18T13:10:22;11.50;;;3.33;;
21843;SDS011;11084;52.482;9.108;2022-12-18T13:15:42;3.60;;;2.40;;
21843;SDS011;11084;52.482;9.108;2022-12-18T13:18:29;2.97;;;2.23;;
21843;SDS011;11084;52.482;9.108;2022-12-18T13:26:00;11.00;;;2.60;;
21843;SDS011;11084;52.482;9.108;2022-12-18T13:34:11;5.80;;;2.40;;
21843;SDS011;11084;52.482;9.108;2022-12-18T13:36:47;4.33;;;2.40;;
21843;SDS011;11084;52.482;9.108;2022-12-18T13:41:39;7.10;;;2.27;;
21843;SDS011;11084;52.482;9.108;2022-12-18T13:44:49;16.97;;;2.70;;
21843;SDS011;11084;52.482;9.108;2022-12-18T13:46:58;4.83;;;2.50;;
21843;SDS011;11084;52.482;9.108;2022-12-18T13:52:17;5.90;;;2.70;;
21843;SDS011;11084;52.482;9.108;2022-12-18T13:54:52;3.53;;;2.00;;
21843;SDS011;11084;52.482;9.108;2022-12-18T13:57:25;4.00;;;2.10;;
21843;SDS011;11084;52.482;9.108;2022-12-18T13:59:58;9.60;;;2.67;;
21843;SDS011;11084;52.482;9.108;2022-12-18T14:02:48;3.53;;;2.37;;
21843;SDS011;11084;52.482;9.108;2022-12-18T14:05:48;2.67;;;1.77;;
21843;SDS011;11084;52.482;9.108;2022-12-18T14:08:12;3.33;;;2.30;;
21843;SDS011;11084;52.482;9.108;2022-12-18T14:10:41;2.97;;;1.87;;
21843;SDS011;11084;52.482;9.108;2022-12-18T14:13:10;5.73;;;2.10;;
21843;SDS011;11084;52.482;9.108;2022-12-18T14:16:03;7.10;;;2.10;;
21843;SDS011;11084;52.482;9.108;2022-12-18T14:18:33;3.93;;;1.80;;
21843;SDS011;11084;52.482;9.108;2022-12-18T14:21:22;3.23;;;2.10;;
21843;SDS011;11084;52.482;9.108;2022-12-18T14:24:06;3.47;;;1.77;;
21843;SDS011;11084;52.482;9.108;2022-12-18T14:26:41;4.83;;;1.77;;
21843;SDS011;11084;52.482;9.108;2022-12-18T14:29:27;5.37;;;2.33;;
21843;SDS011;11084;52.482;9.108;2022-12-18T14:34:47;2.30;;;1.87;;
21843;SDS011;11084;52.482;9.108;2022-12-18T14:37:17;5.10;;;2.33;;
21843;SDS011;11084;52.482;9.108;2022-12-18T14:39:57;4.23;;;2.23;;
21843;SDS011;11084;52.482;9.108;2022-12-18T14:42:26;7.03;;;2.97;;
21843;SDS011;11084;52.482;9.108;2022-12-18T14:48:18;3.63;;;1.90;;
21843;SDS011;11084;52.482;9.108;2022-12-18T14:51:05;4.73;;;2.00;;
21843;SDS011;11084;52.482;9.108;2022-12-18T14:53:56;3.80;;;2.17;;
21843;SDS011;11084;52.482;9.108;2022-12-18T14:58:59;5.17;;;1.80;;
21843;SDS011;11084;52.482;9.108;2022-12-18T15:02:25;3.53;;;2.20;;
21843;SDS011;11084;52.482;9.108;2022-12-18T15:07:41;4.87;;;1.97;;
21843;SDS011;11084;52.482;9.108;2022-12-18T15:10:21;9.70;;;2.43;;
21843;SDS011;11084;52.482;9.108;2022-12-18T15:13:15;3.37;;;1.73;;
21843;SDS011;11084;52.482;9.108;2022-12-18T15:15:49;4.00;;;2.13;;
21843;SDS011;11084;52.482;9.108;2022-12-18T15:18:17;2.60;;;1.90;;
21843;SDS011;11084;52.482;9.108;2022-12-18T15:20:55;4.17;;;1.93;;
21843;SDS011;11084;52.482;9.108;2022-12-18T15:26:07;5.53;;;2.17;;
21843;SDS011;11084;52.482;9.108;2022-12-18T15:31:05;3.27;;;2.70;;
21843;SDS011;11084;52.482;9.108;2022-12-18T15:33:45;3.80;;;1.90;;
21843;SDS011;11084;52.482;9.108;2022-12-18T15:36:39;5.63;;;2.80;;
21843;SDS011;11084;52.482;9.108;2022-12-18T15:39:06;5.53;;;2.20;;
21843;SDS011;11084;52.482;9.108;2022-12-18T15:41:35;7.13;;;2.20;;
21843;SDS011;11084;52.482;9.108;2022-12-18T15:44:01;2.70;;;2.20;;
21843;SDS011;11084;52.482;9.108;2022-12-18T15:46:29;3.63;;;2.23;;
21843;SDS011;11084;52.482;9.108;2022-12-18T15:48:56;9.43;;;2.30;;
21843;SDS011;11084;52.482;9.108;2022-12-18T15:51:24;7.60;;;3.23;;
21843;SDS011;11084;52.482;9.108;2022-12-18T15:54:01;3.77;;;2.27;;
21843;SDS011;11084;52.482;9.108;2022-12-18T15:56:30;5.13;;;2.40;;
21843;SDS011;11084;52.482;9.108;2022-12-18T15:59:18;5.43;;;3.20;;
21843;SDS011;11084;52.482;9.108;2022-12-18T16:01:46;8.03;;;3.03;;
21843;SDS011;11084;52.482;9.108;2022-12-18T16:04:15;4.10;;;2.63;;
21843;SDS011;11084;52.482;9.108;2022-12-18T16:06:45;3.80;;;2.33;;
21843;SDS011;11084;52.482;9.108;2022-12-18T16:09:12;3.17;;;2.23;;
21843;SDS011;11084;52.482;9.108;2022-12-18T16:11:39;2.73;;;2.23;;
21843;SDS011;11084;52.482;9.108;2022-12-18T16:14:19;12.33;;;2.60;;
21843;SDS011;11084;52.482;9.108;2022-12-18T16:16:55;3.00;;;2.00;;
21843;SDS011;11084;52.482;9.108;2022-12-18T16:19:24;2.70;;;2.33;;
21843;SDS011;11084;52.482;9.108;2022-12-18T16:21:52;3.37;;;2.07;;
21843;SDS011;11084;52.482;9.108;2022-12-18T16:24:21;5.93;;;2.37;;
21843;SDS011;11084;52.482;9.108;2022-12-18T16:26:53;2.53;;;2.00;;
21843;SDS011;11084;52.482;9.108;2022-12-18T16:29:20;6.33;;;2.23;;
21843;SDS011;11084;52.482;9.108;2022-12-18T16:31:50;3.40;;;2.20;;
21843;SDS011;11084;52.482;9.108;2022-12-18T16:36:52;5.60;;;2.67;;
21843;SDS011;11084;52.482;9.108;2022-12-18T16:39:20;6.40;;;2.30;;
21843;SDS011;11084;52.482;9.108;2022-12-18T16:41:46;7.47;;;3.47;;
21843;SDS011;11084;52.482;9.108;2022-12-18T16:44:14;4.03;;;2.80;;
21843;SDS011;11084;52.482;9.108;2022-12-18T16:46:40;5.33;;;2.70;;
21843;SDS011;11084;52.482;9.108;2022-12-18T16:49:11;3.73;;;2.40;;
21843;SDS011;11084;52.482;9.108;2022-12-18T16:54:08;4.67;;;2.30;;
21843;SDS011;11084;52.482;9.108;2022-12-18T16:56:37;3.70;;;2.50;;
21843;SDS011;11084;52.482;9.108;2022-12-18T16:59:04;7.87;;;2.73;;
21843;SDS011;11084;52.482;9.108;2022-12-18T17:01:30;3.97;;;2.23;;
21843;SDS011;11084;52.482;9.108;2022-12-18T17:03:58;6.30;;;2.77;;
21843;SDS011;11084;52.482;9.108;2022-12-18T17:06:30;7.80;;;2.43;;
21843;SDS011;11084;52.482;9.108;2022-12-18T17:09:04;6.50;;;3.00;;
21843;SDS011;11084;52.482;9.108;2022-12-18T17:11:35;5.33;;;2.50;;
21843;SDS011;11084;52.482;9.108;2022-12-18T17:14:05;4.80;;;2.50;;
21843;SDS011;11084;52.482;9.108;2022-12-18T17:16:39;3.23;;;1.83;;
21843;SDS011;11084;52.482;9.108;2022-12-18T17:19:08;6.30;;;2.73;;
21843;SDS011;11084;52.482;9.108;2022-12-18T17:21:35;13.40;;;2.97;;
21843;SDS011;11084;52.482;9.108;2022-12-18T17:24:01;10.97;;;2.83;;
21843;SDS011;11084;52.482;9.108;2022-12-18T17:26:28;6.07;;;2.87;;
21843;SDS011;11084;52.482;9.108;2022-12-18T17:28:55;5.13;;;3.43;;
21843;SDS011;11084;52.482;9.108;2022-12-18T17:31:24;9.13;;;3.67;;
21843;SDS011;11084;52.482;9.108;2022-12-18T17:33:53;5.90;;;3.23;;